Time;durP1;ratioP1;P1;durP2;ratioP2;P2;SDS_P1;SDS_P2;PMS_P1;PMS_P2;Temp;Humidity;BMP_temperature;BMP_pressure;BME280_temperature;BME280_humidity;BME280_pressure;Samples;Min_cycle;Max_cycle;Signal;HPM_P1;HPM_P2
2022/04/23 00:01:44;;;;;;;23.25;5.40;;;11.50;99.90;;;;;;4977975;28;20035;-81
2022/04/23 00:04:10;;;;;;;20.98;7.82;;;11.50;99.90;;;;;;4960631;28;20035;-81
2022/04/23 00:06:37;;;;;;;28.80;6.88;;;11.50;99.90;;;;;;4980796;28;20027;-82
2022/04/23 00:09:03;;;;;;;24.20;7.18;;;11.40;99.90;;;;;;4981391;28;20069;-80
2022/04/23 00:11:29;;;;;;;21.27;6.57;;;11.40;99.90;;;;;;4981506;28;20022;-82
2022/04/23 00:13:58;;;;;;;14.40;6.05;;;11.40;99.90;;;;;;4981668;28;20046;-81
2022/04/23 00:16:24;;;;;;;15.82;7.60;;;11.50;99.90;;;;;;4973636;28;20503;-81
2022/04/23 00:18:51;;;;;;;26.38;6.75;;;11.40;99.90;;;;;;4961006;28;20102;-82
2022/04/23 00:21:18;;;;;;;23.15;6.53;;;11.40;99.90;;;;;;4962048;28;20368;-81
2022/04/23 00:23:46;;;;;;;15.05;5.75;;;11.40;99.90;;;;;;4968943;28;20058;-81
2022/04/23 00:26:12;;;;;;;15.57;5.97;;;11.40;99.90;;;;;;4979123;28;20403;-81
2022/04/23 00:28:38;;;;;;;17.52;6.10;;;11.40;99.90;;;;;;4961910;28;20026;-81
2022/04/23 00:31:05;;;;;;;21.13;6.57;;;11.30;99.90;;;;;;4961645;28;20019;-82
2022/04/23 00:33:34;;;;;;;21.15;6.97;;;11.40;99.90;;;;;;4961767;28;20022;-81
2022/04/23 00:36:00;;;;;;;14.38;5.85;;;11.40;99.90;;;;;;4961595;28;20020;-82
2022/04/23 00:38:26;;;;;;;21.58;5.88;;;11.40;99.90;;;;;;4960647;28;20388;-80
2022/04/23 00:40:52;;;;;;;17.38;6.15;;;11.40;99.90;;;;;;4961211;28;20118;-82
2022/04/23 00:43:33;;;;;;;19.00;7.22;;;11.30;99.90;;;;;;4960052;28;20042;-81
2022/04/23 00:46:00;;;;;;;18.88;6.28;;;11.30;99.90;;;;;;4961505;28;20020;-81
2022/04/23 00:48:28;;;;;;;14.45;5.82;;;11.30;99.90;;;;;;4961845;28;20031;-81
2022/04/23 00:50:56;;;;;;;24.10;7.18;;;11.30;99.90;;;;;;4961851;28;20023;-81
2022/04/23 00:53:23;;;;;;;22.38;6.78;;;11.40;99.90;;;;;;4962079;28;20060;-81
2022/04/23 00:55:52;;;;;;;21.80;6.32;;;11.40;99.90;;;;;;4960124;28;20030;-81
2022/04/23 00:58:19;;;;;;;21.48;6.80;;;11.40;99.90;;;;;;4961765;28;20031;-81
2022/04/23 01:00:45;;;;;;;24.17;6.72;;;11.30;99.90;;;;;;4959844;28;20047;-81
2022/04/23 01:03:12;;;;;;;16.92;6.68;;;11.30;99.90;;;;;;4966333;28;20077;-81
2022/04/23 01:05:46;;;;;;;15.18;5.78;;;11.30;99.90;;;;;;4980297;28;20015;-81
2022/04/23 01:08:18;;;;;;;18.40;5.88;;;11.30;99.90;;;;;;4979104;28;20026;-81
2022/04/23 01:10:45;;;;;;;18.58;6.57;;;11.30;99.90;;;;;;4980177;28;20098;-81
2022/04/23 01:13:16;;;;;;;20.48;7.13;;;11.20;99.90;;;;;;4980311;28;20424;-81
2022/04/23 01:15:58;;;;;;;14.38;6.78;;;11.20;99.90;;;;;;4978605;28;20410;-81
2022/04/23 01:18:24;;;;;;;19.77;6.57;;;11.10;99.90;;;;;;4979597;28;20038;-81
2022/04/23 01:20:51;;;;;;;16.00;6.43;;;11.10;99.90;;;;;;4980219;28;20027;-80
2022/04/23 01:23:17;;;;;;;17.58;6.88;;;11.20;99.90;;;;;;4963569;28;20066;-80
2022/04/23 01:25:43;;;;;;;18.30;5.80;;;11.20;99.90;;;;;;4960709;28;20027;-80
2022/04/23 01:28:10;;;;;;;12.88;6.30;;;11.20;99.90;;;;;;4959577;28;20037;-79
2022/04/23 01:30:36;;;;;;;19.65;6.50;;;11.20;99.90;;;;;;4960666;28;20024;-80
2022/04/23 01:33:02;;;;;;;29.30;6.93;;;11.20;99.90;;;;;;4960520;28;20055;-79
2022/04/23 01:35:29;;;;;;;23.80;7.45;;;11.30;99.90;;;;;;4959418;28;20051;-79
2022/04/23 01:37:55;;;;;;;23.55;6.90;;;11.20;99.90;;;;;;4959135;28;20122;-80
2022/04/23 01:40:21;;;;;;;20.05;6.82;;;11.30;99.90;;;;;;4960401;28;20058;-79
2022/04/23 01:42:47;;;;;;;19.02;6.00;;;11.30;99.90;;;;;;4958987;28;20054;-80
2022/04/23 01:45:13;;;;;;;16.20;6.63;;;11.20;99.90;;;;;;4960141;28;20027;-79
2022/04/23 01:47:39;;;;;;;15.23;7.30;;;11.30;99.90;;;;;;4960262;28;20510;-77
2022/04/23 01:50:06;;;;;;;21.23;7.05;;;11.20;99.90;;;;;;4959200;28;20106;-77
2022/04/23 01:52:32;;;;;;;20.60;6.68;;;11.20;99.90;;;;;;4960172;28;20015;-78
2022/04/23 01:54:58;;;;;;;18.20;5.88;;;11.20;99.90;;;;;;4960166;28;20612;-79
2022/04/23 01:57:23;;;;;;;15.73;6.13;;;11.20;99.90;;;;;;4960022;28;20031;-78
2022/04/23 01:59:49;;;;;;;18.35;6.30;;;11.20;99.90;;;;;;4958684;28;20058;-78
2022/04/23 02:02:15;;;;;;;14.80;5.95;;;11.20;99.90;;;;;;4959930;28;20031;-79
2022/04/23 02:04:41;;;;;;;19.67;6.22;;;11.20;99.90;;;;;;4958729;28;20027;-78
2022/04/23 02:07:07;;;;;;;15.75;6.30;;;11.30;99.90;;;;;;4962108;28;20109;-80
2022/04/23 02:09:33;;;;;;;15.73;5.55;;;11.30;99.90;;;;;;4959595;28;20023;-78
2022/04/23 02:11:59;;;;;;;17.67;7.07;;;11.30;99.90;;;;;;4960083;28;20031;-78
2022/04/23 02:14:24;;;;;;;13.93;4.93;;;11.20;99.90;;;;;;4959840;28;20030;-79
2022/04/23 02:16:51;;;;;;;11.18;5.43;;;11.20;99.90;;;;;;4991880;28;20051;-77
2022/04/23 02:19:17;;;;;;;22.40;6.22;;;11.20;99.90;;;;;;4962233;28;20077;-78
2022/04/23 02:21:44;;;;;;;19.52;6.95;;;11.20;99.90;;;;;;4979443;28;20068;-77
2022/04/23 02:24:10;;;;;;;22.90;6.43;;;11.20;99.90;;;;;;4979907;28;20019;-78
2022/04/23 02:26:36;;;;;;;18.98;6.43;;;11.20;99.90;;;;;;4961562;28;20094;-79
2022/04/23 02:29:03;;;;;;;19.15;6.30;;;11.30;99.90;;;;;;4960800;28;20022;-77
2022/04/23 02:31:28;;;;;;;20.08;5.82;;;11.30;99.90;;;;;;4961435;28;20023;-78
2022/04/23 02:33:54;;;;;;;14.68;5.53;;;11.30;99.90;;;;;;4961352;28;20023;-79
2022/04/23 02:36:20;;;;;;;22.90;5.47;;;11.30;99.90;;;;;;4978631;28;20030;-79
2022/04/23 02:38:50;;;;;;;22.38;6.20;;;11.30;99.90;;;;;;4961540;28;20368;-79
2022/04/23 02:41:16;;;;;;;14.50;5.47;;;11.40;99.90;;;;;;4978254;28;20026;-79
2022/04/23 02:43:42;;;;;;;13.65;5.60;;;11.40;99.90;;;;;;4961417;28;20032;-80
2022/04/23 02:46:09;;;;;;;21.05;5.32;;;11.40;99.90;;;;;;4961023;28;20027;-79
2022/04/23 02:48:38;;;;;;;15.10;5.30;;;11.40;99.90;;;;;;4978817;28;20023;-79
2022/04/23 02:51:04;;;;;;;13.75;5.32;;;11.40;99.90;;;;;;4978696;28;20086;-78
2022/04/23 02:53:30;;;;;;;22.55;5.45;;;11.40;99.90;;;;;;4961322;28;20023;-79
2022/04/23 02:55:56;;;;;;;23.80;6.15;;;11.40;99.90;;;;;;4961000;28;20031;-79
2022/04/23 02:58:25;;;;;;;15.52;7.60;;;11.40;99.90;;;;;;4978369;28;20018;-79
2022/04/23 03:00:54;;;;;;;15.48;6.10;;;11.40;99.90;;;;;;4978236;28;20027;-80
2022/04/23 03:03:21;;;;;;;12.98;5.05;;;11.50;99.90;;;;;;4978576;28;20050;-78
2022/04/23 03:05:47;;;;;;;13.18;4.97;;;11.50;99.90;;;;;;4978150;28;20132;-80
2022/04/23 03:08:14;;;;;;;18.40;6.07;;;11.50;99.90;;;;;;4978354;28;20023;-80
2022/04/23 03:10:41;;;;;;;13.57;5.47;;;11.50;99.90;;;;;;4978008;28;20031;-79
2022/04/23 03:13:08;;;;;;;19.13;5.45;;;11.50;99.90;;;;;;4960946;28;20054;-79
2022/04/23 03:15:35;;;;;;;16.92;5.40;;;11.40;99.90;;;;;;4967365;28;20422;-79
2022/04/23 03:18:08;;;;;;;19.60;5.40;;;11.40;99.90;;;;;;4967071;28;20042;-80
2022/04/23 03:20:35;;;;;;;18.70;5.72;;;11.40;99.90;;;;;;4978513;28;20039;-80
2022/04/23 03:23:00;;;;;;;11.27;4.57;;;11.40;99.90;;;;;;4978118;28;20023;-79
2022/04/23 03:25:27;;;;;;;18.67;4.85;;;11.40;99.90;;;;;;4960887;28;20086;-80
2022/04/23 03:27:53;;;;;;;16.20;5.80;;;11.30;99.90;;;;;;4978109;28;20015;-78
2022/04/23 03:30:20;;;;;;;17.38;5.13;;;11.30;99.90;;;;;;4978155;28;20438;-80
2022/04/23 03:32:47;;;;;;;16.27;5.05;;;11.30;99.90;;;;;;4975373;28;20029;-80
2022/04/23 03:35:13;;;;;;;13.80;5.57;;;11.30;99.90;;;;;;4980115;28;20057;-78
2022/04/23 03:37:40;;;;;;;17.45;5.53;;;11.20;99.90;;;;;;4997336;28;20096;-79
2022/04/23 03:40:10;;;;;;;16.15;5.85;;;11.20;99.90;;;;;;4998502;28;20025;-79
2022/04/23 03:42:37;;;;;;;14.27;5.33;;;11.20;99.90;;;;;;5001284;28;20029;-79
2022/04/23 03:45:04;;;;;;;14.05;5.80;;;11.20;99.90;;;;;;5001556;28;20262;-78
2022/04/23 03:47:33;;;;;;;28.60;5.68;;;11.10;99.90;;;;;;4983673;28;20026;-79
2022/04/23 03:50:08;;;;;;;16.55;6.03;;;11.10;99.90;;;;;;5002173;28;20073;-79
2022/04/23 03:52:34;;;;;;;18.33;5.85;;;11.00;99.90;;;;;;5001484;28;20106;-78
2022/04/23 03:55:00;;;;;;;11.82;5.75;;;11.00;99.90;;;;;;4983807;28;20149;-79
2022/04/23 03:57:27;;;;;;;18.63;5.00;;;11.10;99.90;;;;;;5001260;28;20030;-78
2022/04/23 03:59:53;;;;;;;12.88;5.53;;;11.10;99.90;;;;;;5000999;28;20026;-80
2022/04/23 04:02:19;;;;;;;15.05;5.43;;;11.10;99.90;;;;;;5000576;28;20030;-80
2022/04/23 04:04:45;;;;;;;15.75;6.07;;;11.10;99.90;;;;;;5000721;28;20112;-79
2022/04/23 04:07:18;;;;;;;16.38;6.80;;;11.10;99.90;;;;;;5000823;28;20034;-79
2022/04/23 04:09:44;;;;;;;14.02;5.38;;;11.20;99.90;;;;;;4983102;28;20023;-78
2022/04/23 04:12:10;;;;;;;18.75;6.88;;;11.20;99.90;;;;;;4983491;28;20026;-78
2022/04/23 04:14:36;;;;;;;22.70;5.55;;;11.20;99.90;;;;;;5000544;28;20026;-79
2022/04/23 04:17:09;;;;;;;17.83;5.72;;;11.20;99.90;;;;;;4982908;28;20065;-78
2022/04/23 04:19:36;;;;;;;12.52;5.25;;;11.20;99.90;;;;;;5000678;28;20033;-79
2022/04/23 04:22:03;;;;;;;16.15;5.90;;;11.20;99.90;;;;;;5000833;28;20376;-78
2022/04/23 04:24:30;;;;;;;14.88;5.75;;;11.20;99.90;;;;;;4982808;28;20019;-79
2022/04/23 04:26:57;;;;;;;13.35;5.82;;;11.30;99.90;;;;;;4983267;28;20058;-79
2022/04/23 04:29:25;;;;;;;18.00;6.30;;;11.30;99.90;;;;;;4982769;28;20023;-79
2022/04/23 04:31:51;;;;;;;18.08;6.43;;;11.30;99.90;;;;;;4982932;28;20030;-80
2022/04/23 04:34:23;;;;;;;15.65;5.30;;;11.30;99.90;;;;;;5000230;28;20033;-80
2022/04/23 04:36:51;;;;;;;18.83;6.47;;;11.40;99.90;;;;;;5000938;28;20030;-79
2022/04/23 04:39:18;;;;;;;19.55;6.72;;;11.40;99.90;;;;;;4999986;28;20755;-80
2022/04/23 04:41:46;;;;;;;19.17;6.20;;;11.40;99.90;;;;;;4982749;28;20062;-79
2022/04/23 04:44:11;;;;;;;20.00;7.15;;;11.40;99.90;;;;;;5000015;28;20073;-79
2022/04/23 04:46:40;;;;;;;18.98;6.60;;;11.40;99.90;;;;;;5000212;28;20026;-79
2022/04/23 04:49:06;;;;;;;22.08;6.65;;;11.40;99.90;;;;;;4982490;28;20023;-80
2022/04/23 04:51:36;;;;;;;17.83;6.45;;;11.50;99.90;;;;;;4999143;28;20105;-80
2022/04/23 04:54:06;;;;;;;20.45;5.88;;;11.40;99.90;;;;;;4999851;28;20022;-79
2022/04/23 04:56:33;;;;;;;17.93;6.90;;;11.40;99.90;;;;;;4982203;28;20030;-80
2022/04/23 04:59:00;;;;;;;17.67;6.18;;;11.30;99.90;;;;;;4999774;28;20027;-79
2022/04/23 05:01:27;;;;;;;17.38;5.80;;;11.30;99.90;;;;;;5000027;28;20072;-79
2022/04/23 05:03:54;;;;;;;18.30;6.75;;;11.30;99.90;;;;;;4999799;28;20499;-80
2022/04/23 05:06:20;;;;;;;17.80;6.20;;;11.30;99.90;;;;;;4999768;28;20038;-79
2022/04/23 05:08:46;;;;;;;18.00;7.00;;;11.30;99.90;;;;;;4999704;28;20018;-79
2022/04/23 05:11:12;;;;;;;16.92;6.53;;;11.30;99.90;;;;;;4982017;28;20030;-80
2022/04/23 05:13:38;;;;;;;16.73;6.43;;;11.30;99.90;;;;;;4998796;28;20125;-80
2022/04/23 05:16:08;;;;;;;22.52;6.88;;;11.30;99.90;;;;;;4999286;28;20057;-78
2022/04/23 05:18:34;;;;;;;21.70;7.10;;;11.30;99.90;;;;;;4964739;28;20479;-78
2022/04/23 05:21:01;;;;;;;13.60;6.65;;;11.30;99.90;;;;;;4980431;28;20478;-78
2022/04/23 05:23:27;;;;;;;23.02;6.38;;;11.30;99.90;;;;;;4963014;28;20035;-79
2022/04/23 05:25:53;;;;;;;20.02;7.18;;;11.40;99.90;;;;;;4980226;28;20505;-78
2022/04/23 05:28:19;;;;;;;21.95;6.63;;;11.40;99.90;;;;;;4980184;28;20050;-79
2022/04/23 05:30:45;;;;;;;20.65;6.88;;;11.50;99.90;;;;;;4962344;28;20570;-78
2022/04/23 05:33:11;;;;;;;18.50;7.43;;;11.50;99.90;;;;;;4979855;28;20051;-78
2022/04/23 05:35:38;;;;;;;22.27;6.40;;;11.50;99.90;;;;;;4981710;28;20030;-78
2022/04/23 05:38:05;;;;;;;17.50;5.97;;;11.50;99.90;;;;;;4981828;28;20454;-79
2022/04/23 05:40:32;;;;;;;17.70;7.03;;;11.50;99.90;;;;;;4981596;28;20117;-78
2022/04/23 05:43:00;;;;;;;20.60;6.95;;;11.50;99.90;;;;;;4998959;28;20030;-80
2022/04/23 05:45:27;;;;;;;17.38;6.45;;;11.60;99.90;;;;;;4999011;28;20398;-79
2022/04/23 05:47:54;;;;;;;15.68;6.13;;;11.70;99.90;;;;;;4998902;28;20060;-79
2022/04/23 05:50:20;;;;;;;21.58;7.25;;;11.70;99.90;;;;;;4999324;28;20026;-80
2022/04/23 05:52:46;;;;;;;20.77;7.15;;;11.70;99.90;;;;;;4998827;28;20022;-80
2022/04/23 05:55:12;;;;;;;25.67;7.30;;;11.80;99.90;;;;;;4981215;28;20403;-80
2022/04/23 05:57:38;;;;;;;24.83;7.07;;;11.70;99.90;;;;;;4998673;28;20057;-78
2022/04/23 06:00:09;;;;;;;19.48;6.68;;;11.80;99.90;;;;;;4981133;28;20120;-80
2022/04/23 06:02:35;;;;;;;26.25;7.50;;;11.80;99.90;;;;;;4981129;28;20512;-79
2022/04/23 06:05:02;;;;;;;19.10;7.55;;;11.90;99.90;;;;;;4998542;28;20120;-79
2022/04/23 06:07:28;;;;;;;31.48;7.63;;;12.00;99.90;;;;;;4997815;28;20029;-78
2022/04/23 06:09:54;;;;;;;26.55;7.15;;;12.20;99.90;;;;;;4980084;28;20022;-77
2022/04/23 06:12:20;;;;;;;17.08;5.93;;;12.30;99.90;;;;;;4979324;28;20522;-79
2022/04/23 06:14:46;;;;;;;24.00;6.97;;;12.50;99.90;;;;;;4981632;28;20486;-79
2022/04/23 06:17:13;;;;;;;22.92;6.55;;;12.50;99.90;;;;;;4969594;28;20080;-78
2022/04/23 06:19:43;;;;;;;22.17;6.13;;;12.60;99.90;;;;;;4996399;28;20113;-79
2022/04/23 06:22:09;;;;;;;15.95;6.03;;;12.60;99.90;;;;;;4998405;28;20034;-79
2022/04/23 06:24:35;;;;;;;24.00;5.55;;;12.70;99.90;;;;;;4984476;28;20057;-78
2022/04/23 06:27:01;;;;;;;16.20;6.10;;;12.70;99.90;;;;;;4979042;28;20491;-80
2022/04/23 06:29:27;;;;;;;22.50;6.82;;;12.70;99.90;;;;;;4978661;28;20390;-81
2022/04/23 06:31:53;;;;;;;19.45;5.82;;;12.70;99.90;;;;;;4961098;28;20033;-80
2022/04/23 06:34:20;;;;;;;17.98;6.60;;;12.80;99.90;;;;;;4964639;28;20021;-80
2022/04/23 06:36:46;;;;;;;18.17;6.68;;;12.90;99.90;;;;;;4978866;28;20039;-80
2022/04/23 06:39:12;;;;;;;14.95;6.40;;;12.90;99.90;;;;;;4960921;28;20442;-80
2022/04/23 06:41:38;;;;;;;14.65;6.50;;;12.90;99.90;;;;;;4961265;28;20036;-81
2022/04/23 06:44:04;;;;;;;22.73;6.68;;;12.90;99.90;;;;;;4978569;28;20031;-79
2022/04/23 06:46:30;;;;;;;22.98;6.20;;;12.90;99.90;;;;;;4961405;28;20027;-79
2022/04/23 06:48:56;;;;;;;17.80;6.35;;;12.90;99.90;;;;;;4978597;28;20026;-81
2022/04/23 06:51:23;;;;;;;24.00;6.38;;;12.90;99.90;;;;;;4968382;28;20034;-81
2022/04/23 06:53:48;;;;;;;21.17;5.65;;;13.00;99.90;;;;;;4996334;28;20023;-81
2022/04/23 06:56:14;;;;;;;27.35;6.10;;;13.00;99.90;;;;;;4971962;28;20121;-80
2022/04/23 06:58:40;;;;;;;11.57;5.68;;;12.90;99.90;;;;;;4970022;28;20022;-81
2022/04/23 07:01:06;;;;;;;14.18;6.07;;;12.90;99.90;;;;;;4977797;28;20046;-81
2022/04/23 07:03:32;;;;;;;13.70;5.70;;;12.90;99.90;;;;;;4976906;28;20026;-82
2022/04/23 07:05:58;;;;;;;20.75;5.85;;;13.00;99.90;;;;;;4974380;28;20026;-81
2022/04/23 07:08:24;;;;;;;22.15;6.07;;;13.00;99.90;;;;;;4977050;28;20045;-81
2022/04/23 07:10:51;;;;;;;21.35;6.82;;;13.00;99.90;;;;;;4977356;28;20105;-81
2022/04/23 07:13:17;;;;;;;16.60;6.05;;;13.10;99.90;;;;;;4977300;28;20014;-81
2022/04/23 07:15:44;;;;;;;15.98;5.88;;;13.10;99.90;;;;;;4980219;28;20490;-82
2022/04/23 07:18:10;;;;;;;24.38;6.75;;;13.10;99.90;;;;;;4983542;28;20215;-81
2022/04/23 07:20:39;;;;;;;26.05;7.07;;;13.10;99.90;;;;;;4982907;28;20135;-80
2022/04/23 07:25:49;;;;;;;18.75;5.20;;;13.20;99.90;;;;;;4982627;28;20042;-81
2022/04/23 07:28:15;;;;;;;18.85;5.60;;;13.30;99.90;;;;;;4984492;28;20023;-79
2022/04/23 07:30:42;;;;;;;21.60;6.03;;;13.30;99.90;;;;;;4983138;28;20030;-80
2022/04/23 07:33:08;;;;;;;24.85;7.25;;;13.30;99.90;;;;;;4982301;28;20553;-79
2022/04/23 07:38:20;;;;;;;20.90;6.22;;;13.40;99.90;;;;;;4980180;28;20081;-79
2022/04/23 07:40:50;;;;;;;18.92;5.32;;;13.60;99.90;;;;;;4982138;28;20454;-79
2022/04/23 07:43:16;;;;;;;20.80;5.90;;;13.70;99.90;;;;;;4975631;28;20055;-82
2022/04/23 07:45:44;;;;;;;19.80;6.60;;;13.90;99.90;;;;;;4964667;28;20070;-82
2022/04/23 07:48:11;;;;;;;21.25;6.32;;;13.90;99.90;;;;;;4978046;28;20030;-81
2022/04/23 07:50:39;;;;;;;13.90;5.90;;;14.00;99.90;;;;;;4983147;28;20054;-81
2022/04/23 07:53:07;;;;;;;17.20;6.32;;;14.10;99.90;;;;;;4984328;28;20026;-79
2022/04/23 07:55:36;;;;;;;18.75;5.50;;;14.00;99.90;;;;;;4981910;28;20058;-79
2022/04/23 07:58:04;;;;;;;15.90;6.47;;;14.10;99.90;;;;;;4978649;28;20625;-77
2022/04/23 08:00:31;;;;;;;12.25;6.22;;;14.00;99.90;;;;;;4968079;28;20034;-81
2022/04/23 08:02:58;;;;;;;17.42;7.03;;;14.10;99.90;;;;;;4964039;28;20472;-80
2022/04/23 08:05:24;;;;;;;16.30;5.95;;;14.10;99.90;;;;;;4971864;28;20027;-81
2022/04/23 08:07:51;;;;;;;13.15;5.70;;;14.10;99.90;;;;;;4982421;28;20029;-79
2022/04/23 08:10:17;;;;;;;16.38;5.53;;;14.00;99.90;;;;;;4980800;28;20022;-79
2022/04/23 08:12:42;;;;;;;20.52;5.13;;;14.00;99.90;;;;;;4981023;28;20023;-79
2022/04/23 08:15:09;;;;;;;21.05;5.68;;;13.90;99.90;;;;;;4988866;28;20061;-78
2022/04/23 08:17:35;;;;;;;18.48;5.68;;;14.00;99.90;;;;;;4976682;28;20058;-79
2022/04/23 08:20:01;;;;;;;15.73;5.93;;;14.00;99.90;;;;;;4997174;28;20042;-79
2022/04/23 08:22:27;;;;;;;14.60;6.20;;;14.10;99.90;;;;;;4986277;28;20022;-77
2022/04/23 08:24:53;;;;;;;17.17;6.47;;;14.10;99.90;;;;;;4985840;28;20030;-77
2022/04/23 08:27:18;;;;;;;27.17;7.38;;;14.20;99.90;;;;;;5001502;28;20030;-78
2022/04/23 08:32:29;;;;;;;19.52;6.55;;;14.30;99.90;;;;;;5000027;28;20379;-78
2022/04/23 08:34:54;;;;;;;21.42;6.55;;;14.30;99.90;;;;;;4999592;28;20030;-80
2022/04/23 08:37:22;;;;;;;19.75;6.22;;;14.40;99.90;;;;;;4982885;28;20045;-78
2022/04/23 08:39:48;;;;;;;18.20;5.80;;;14.50;99.90;;;;;;4982526;28;20114;-78
2022/04/23 08:42:18;;;;;;;13.50;6.35;;;14.50;99.90;;;;;;4969370;28;20042;-82
2022/04/23 08:44:45;;;;;;;16.23;6.20;;;14.60;99.90;;;;;;4987445;28;20026;-79
2022/04/23 08:47:11;;;;;;;25.15;6.10;;;14.60;99.90;;;;;;4986052;28;20023;-79
2022/04/23 08:49:41;;;;;;;25.25;5.97;;;14.70;99.90;;;;;;4963344;28;20073;-78
2022/04/23 08:52:19;;;;;;;19.17;5.50;;;14.90;99.90;;;;;;4963199;28;20450;-78
2022/04/23 08:54:46;;;;;;;20.85;6.50;;;15.10;99.90;;;;;;4980293;28;20484;-78
2022/04/23 08:57:12;;;;;;;23.05;5.40;;;15.30;99.90;;;;;;4963005;28;20100;-79
2022/04/23 08:59:38;;;;;;;19.73;6.22;;;15.50;99.90;;;;;;4980545;28;20077;-78
2022/04/23 09:02:12;;;;;;;15.02;5.38;;;15.50;99.90;;;;;;4999927;28;20038;-79
2022/04/23 09:04:38;;;;;;;23.70;5.95;;;15.50;99.90;;;;;;5000040;28;20371;-79
2022/04/23 09:07:04;;;;;;;17.70;5.15;;;15.30;99.90;;;;;;4998461;28;20073;-78
2022/04/23 09:09:30;;;;;;;16.42;5.55;;;15.10;99.90;;;;;;4998832;28;20022;-80
2022/04/23 09:11:58;;;;;;;14.77;5.55;;;14.90;99.90;;;;;;4995937;28;20026;-78
2022/04/23 09:14:33;;;;;;;21.63;5.70;;;14.80;99.90;;;;;;4971772;28;20050;-78
2022/04/23 09:25:35;;;;;;;14.15;5.97;;;14.40;99.90;;;;;;4986948;28;20450;-77
2022/04/23 09:28:30;;;;;;;25.73;7.25;;;14.40;99.90;;;;;;4983467;28;20026;-78
2022/04/23 09:30:56;;;;;;;17.05;5.10;;;14.30;99.90;;;;;;4958855;28;20098;-79
2022/04/23 09:33:30;;;;;;;21.70;6.43;;;14.30;99.90;;;;;;4979575;28;20034;-79
2022/04/23 09:35:59;;;;;;;20.98;5.90;;;14.30;99.90;;;;;;4979659;28;20031;-79
2022/04/23 09:38:26;;;;;;;22.90;6.38;;;14.20;99.90;;;;;;4979376;28;20026;-79
2022/04/23 09:40:54;;;;;;;13.07;5.53;;;14.20;99.90;;;;;;4979382;28;20114;-81
2022/04/23 09:43:32;;;;;;;18.73;5.90;;;14.10;99.90;;;;;;4962172;28;20035;-80
2022/04/23 09:46:03;;;;;;;24.48;5.78;;;14.10;99.90;;;;;;4961945;28;20030;-81
2022/04/23 09:48:30;;;;;;;26.45;7.18;;;14.10;99.90;;;;;;4985837;28;20014;-80
2022/04/23 09:50:59;;;;;;;22.08;6.60;;;14.00;99.90;;;;;;4994927;28;20030;-81
2022/04/23 09:53:27;;;;;;;8.55;3.47;;;13.90;99.90;;;;;;4995907;28;20026;-82
2022/04/23 09:55:59;;;;;;;4.55;2.42;;;13.40;99.90;;;;;;4993953;28;20503;-82
2022/04/23 09:58:33;;;;;;;3.95;2.30;;;12.70;99.90;;;;;;4962716;28;20034;-81
2022/04/23 10:00:59;;;;;;;7.63;2.30;;;12.00;99.90;;;;;;4962009;28;20031;-80
2022/04/23 10:03:29;;;;;;;21.25;2.60;;;11.40;99.90;;;;;;4979270;28;20475;-78
2022/04/23 10:05:56;;;;;;;4.22;2.15;;;10.90;99.90;;;;;;4992611;28;20031;-77
2022/04/23 10:08:30;;;;;;;3.88;2.35;;;10.50;99.90;;;;;;4998655;28;20022;-77
2022/04/23 10:11:26;;;;;;;10.07;2.65;;;10.20;99.90;;;;;;4998550;28;20050;-75
2022/04/23 10:14:02;;;;;;;21.05;3.38;;;9.90;99.90;;;;;;4994799;28;20491;-74
2022/04/23 10:16:32;;;;;;;10.90;2.35;;;9.90;99.90;;;;;;4997893;28;20054;-74
2022/04/23 10:18:59;;;;;;;4.32;2.25;;;9.70;99.90;;;;;;4989847;28;20026;-75
2022/04/23 10:21:41;;;;;;;15.75;2.70;;;9.70;99.90;;;;;;4978346;28;20038;-73
2022/04/23 10:24:16;;;;;;;8.13;2.30;;;9.60;99.90;;;;;;4978961;28;20458;-74
2022/04/23 10:26:57;;;;;;;11.38;2.60;;;9.60;99.90;;;;;;4994804;28;20027;-74
2022/04/23 10:29:25;;;;;;;2.72;2.47;;;9.60;99.90;;;;;;4997425;28;20030;-73
2022/04/23 10:32:16;;;;;;;2.85;2.50;;;9.60;99.90;;;;;;4978745;28;20077;-74
2022/04/23 10:34:42;;;;;;;;;;;9.60;99.90;;;;;;4978948;28;20030;-74
2022/04/23 10:37:19;;;;;;;3.53;2.92;;;9.60;99.90;;;;;;4990359;28;19906;-75
2022/04/23 10:40:06;;;;;;;5.32;2.65;;;9.60;99.90;;;;;;4997364;28;20035;-75
2022/04/23 10:42:32;;;;;;;2.60;2.40;;;9.60;99.90;;;;;;4983214;28;20035;-76
2022/04/23 10:45:06;;;;;;;4.68;2.60;;;9.50;99.90;;;;;;4968049;28;20027;-75
2022/04/23 10:47:36;;;;;;;3.20;2.90;;;9.40;99.90;;;;;;4987797;28;20076;-79
2022/04/23 10:50:15;;;;;;;2.85;2.50;;;9.40;99.90;;;;;;4987036;28;20044;-77
2022/04/23 10:52:42;;;;;;;4.10;2.92;;;9.40;99.90;;;;;;4988720;28;20026;-75
2022/04/23 10:55:09;;;;;;;22.33;6.57;;;9.30;99.90;;;;;;4972371;28;20026;-74
2022/04/23 10:57:35;;;;;;;7.50;2.47;;;9.30;99.90;;;;;;4986039;28;20035;-76
2022/04/23 11:00:16;;;;;;;9.35;2.67;;;9.20;99.90;;;;;;4982199;28;20023;-75
2022/04/23 11:03:03;;;;;;;6.40;2.80;;;9.10;99.90;;;;;;4969126;28;20030;-75
2022/04/23 11:13:59;;;;;;;4.65;2.80;;;9.00;99.90;;;;;;4978330;28;20118;-74
2022/04/23 11:16:29;;;;;;;3.90;2.60;;;9.00;99.90;;;;;;4990585;28;20046;-75
2022/04/23 11:19:00;;;;;;;2.47;2.28;;;9.00;99.90;;;;;;4977894;28;20058;-74
2022/04/23 11:21:28;;;;;;;3.58;2.95;;;8.90;99.90;;;;;;4997419;28;20043;-75
2022/04/23 11:23:56;;;;;;;2.92;2.72;;;8.80;99.90;;;;;;4979246;28;20045;-75
2022/04/23 11:26:39;;;;;;;9.35;2.80;;;8.80;99.90;;;;;;4979808;28;20061;-75
2022/04/23 11:29:05;;;;;;;3.13;2.80;;;8.70;99.90;;;;;;4980118;28;20394;-75
2022/04/23 11:31:31;;;;;;;2.72;2.53;;;8.70;99.90;;;;;;4997096;28;20057;-74
2022/04/23 11:34:01;;;;;;;3.33;3.03;;;8.70;99.90;;;;;;4986813;28;20031;-74
2022/04/23 11:36:28;;;;;;;5.30;2.95;;;8.60;99.90;;;;;;4977941;28;20022;-75
2022/04/23 11:38:55;;;;;;;3.10;2.90;;;8.60;99.90;;;;;;4986936;28;20114;-74
2022/04/23 11:41:47;;;;;;;2.80;2.60;;;8.60;99.90;;;;;;4961887;28;20110;-75
2022/04/23 11:44:45;;;;;;;3.05;2.78;;;8.60;99.90;;;;;;4960196;28;20031;-74
2022/04/23 11:47:08;;;;;;;3.00;2.70;;;8.60;99.90;;;;;;4977804;28;20391;-76
2022/04/23 11:49:34;;;;;;;3.22;2.80;;;8.60;99.90;;;;;;4977659;28;20070;-75
2022/04/23 11:52:14;;;;;;;3.25;2.50;;;8.60;99.90;;;;;;4960655;28;20045;-76
2022/04/23 11:54:46;;;;;;;2.85;2.65;;;8.60;99.90;;;;;;4985605;28;20031;-75
2022/04/23 11:57:18;;;;;;;3.10;2.42;;;8.70;99.90;;;;;;4996163;28;20152;-76
2022/04/23 11:59:46;;;;;;;7.00;3.47;;;8.70;99.90;;;;;;4996368;28;20093;-75
2022/04/23 12:02:22;;;;;;;3.38;3.08;;;8.70;99.90;;;;;;4979962;28;20085;-76
2022/04/23 12:04:53;;;;;;;3.50;3.20;;;8.70;99.90;;;;;;4981477;28;20027;-76
2022/04/23 12:07:20;;;;;;;3.65;3.08;;;8.70;99.90;;;;;;4996115;28;20055;-76
2022/04/23 12:09:52;;;;;;;3.83;3.53;;;8.70;99.90;;;;;;4999668;28;20027;-76
2022/04/23 12:12:25;;;;;;;3.50;3.20;;;8.80;99.90;;;;;;4998478;28;20048;-76
2022/04/23 12:14:55;;;;;;;3.47;3.17;;;8.80;99.90;;;;;;4998621;28;20062;-76
2022/04/23 12:17:29;;;;;;;3.33;3.03;;;8.80;99.90;;;;;;4994991;28;20050;-77
2022/04/23 12:20:08;;;;;;;3.83;3.00;;;8.80;99.90;;;;;;4998798;28;20749;-76
2022/04/23 12:22:34;;;;;;;3.00;2.80;;;8.80;99.90;;;;;;4980962;28;20458;-76
2022/04/23 12:25:16;;;;;;;3.13;2.88;;;8.90;99.90;;;;;;4980604;28;20038;-77
2022/04/23 12:27:56;;;;;;;4.05;3.60;;;8.90;99.90;;;;;;4997304;28;20470;-76
2022/04/23 12:41:57;;;;;;;7.47;5.32;;;9.00;99.90;;;;;;4989541;28;20498;-76
2022/04/23 12:44:25;;;;;;;10.93;7.35;;;9.00;99.90;;;;;;4999854;28;20101;-76
2022/04/23 12:46:55;;;;;;;13.25;7.57;;;9.00;99.90;;;;;;5000183;28;20030;-76
2022/04/23 12:49:23;;;;;;;7.60;4.17;;;9.00;99.90;;;;;;4999974;28;20019;-75
2022/04/23 12:51:54;;;;;;;7.85;4.40;;;9.00;99.90;;;;;;4982592;28;20353;-75
2022/04/23 12:54:24;;;;;;;6.07;5.03;;;9.00;99.90;;;;;;4999707;28;20101;-75
2022/04/23 12:56:51;;;;;;;10.40;4.82;;;9.00;99.90;;;;;;4987181;28;20114;-76
2022/04/23 12:59:17;;;;;;;7.90;5.88;;;9.00;99.90;;;;;;4980381;28;20483;-76
2022/04/23 13:01:43;;;;;;;4.82;4.18;;;9.10;99.90;;;;;;4963097;28;20409;-76
2022/04/23 13:04:11;;;;;;;10.10;6.40;;;9.10;99.90;;;;;;4982258;28;20105;-76
2022/04/23 13:09:22;;;;;;;8.98;5.75;;;9.10;99.90;;;;;;4980592;28;20089;-76
2022/04/23 13:11:49;;;;;;;7.70;4.82;;;9.10;99.90;;;;;;4990003;28;20023;-76
2022/04/23 13:14:17;;;;;;;9.00;4.60;;;9.20;99.90;;;;;;4966873;28;20034;-76
2022/04/23 13:16:44;;;;;;;7.20;3.90;;;9.20;99.90;;;;;;4997587;28;20055;-77
2022/04/23 13:19:10;;;;;;;9.70;5.30;;;9.20;99.90;;;;;;4963099;28;20034;-77
2022/04/23 13:21:36;;;;;;;5.25;4.28;;;9.30;99.90;;;;;;4975461;28;21090;-76
2022/04/23 13:24:03;;;;;;;6.75;5.25;;;9.30;99.90;;;;;;4998518;28;20399;-76
2022/04/23 13:26:29;;;;;;;6.63;4.65;;;9.40;99.90;;;;;;4979003;28;20483;-76